Time;durP1;ratioP1;P1;durP2;ratioP2;P2;SDS_P1;SDS_P2;PMS_P1;PMS_P2;Temp;Humidity;BMP_temperature;BMP_pressure;BME280_temperature;BME280_humidity;BME280_pressure;Samples;Min_cycle;Max_cycle;Signal;HPM_P1;HPM_P2
2023/05/07 00:00:20;;;;;;;9.70;6.53;;;15.20;99.90;;;;;;5099056;28;20370;-71
2023/05/07 00:02:46;;;;;;;10.52;6.50;;;15.20;99.90;;;;;;5102652;28;20401;-72
2023/05/07 00:05:12;;;;;;;8.95;6.32;;;15.20;99.90;;;;;;5103290;28;20385;-72
2023/05/07 00:07:37;;;;;;;10.18;7.68;;;15.20;99.90;;;;;;5103940;28;20392;-73
2023/05/07 00:10:04;;;;;;;10.35;6.88;;;15.20;99.90;;;;;;5109230;28;20378;-72
2023/05/07 00:12:33;;;;;;;9.57;6.00;;;15.20;99.90;;;;;;5105125;28;20385;-72
2023/05/07 00:15:00;;;;;;;9.45;6.18;;;15.30;99.90;;;;;;5101286;28;20374;-71
2023/05/07 00:17:25;;;;;;;10.57;6.60;;;15.40;99.90;;;;;;5098546;28;20382;-72
2023/05/07 00:19:51;;;;;;;9.60;6.70;;;15.40;99.90;;;;;;5096481;28;20461;-72
2023/05/07 00:22:17;;;;;;;10.50;6.50;;;15.40;99.90;;;;;;5095483;28;20489;-71
2023/05/07 00:24:42;;;;;;;11.40;6.67;;;15.30;99.90;;;;;;5097423;28;20393;-73
2023/05/07 00:27:08;;;;;;;10.98;6.40;;;15.40;99.90;;;;;;5097514;28;20378;-70
2023/05/07 00:29:34;;;;;;;8.07;6.22;;;15.70;98.50;;;;;;5097402;28;20386;-72
2023/05/07 00:31:59;;;;;;;10.27;6.47;;;15.90;93.40;;;;;;5092240;28;20401;-69
2023/05/07 00:34:25;;;;;;;8.18;6.30;;;15.80;92.60;;;;;;5093905;28;20377;-73
2023/05/07 00:36:50;;;;;;;9.30;6.77;;;15.50;96.20;;;;;;5093223;28;20866;-71
2023/05/07 00:39:16;;;;;;;10.00;6.50;;;15.50;99.00;;;;;;5091759;28;20378;-71
2023/05/07 00:41:41;;;;;;;9.00;6.30;;;15.40;99.90;;;;;;5090763;28;20396;-71
2023/05/07 00:44:07;;;;;;;8.43;6.60;;;15.30;99.90;;;;;;5091162;28;20382;-72
2023/05/07 00:46:33;;;;;;;7.50;6.30;;;15.10;99.90;;;;;;5094316;28;20519;-70
2023/05/07 00:48:59;;;;;;;7.85;6.50;;;15.00;99.90;;;;;;5080096;28;20453;-72
2023/05/07 00:51:27;;;;;;;10.07;6.20;;;14.90;99.90;;;;;;5096333;28;20405;-70
2023/05/07 00:53:53;;;;;;;11.00;6.33;;;14.90;99.90;;;;;;5104160;28;20370;-73
2023/05/07 00:56:20;;;;;;;8.85;6.50;;;14.90;99.90;;;;;;5100459;28;20457;-71
2023/05/07 00:58:46;;;;;;;10.30;6.90;;;14.90;99.90;;;;;;5095302;28;20403;-72
2023/05/07 01:01:11;;;;;;;11.73;7.45;;;15.00;99.90;;;;;;5094640;28;20422;-72
2023/05/07 01:03:37;;;;;;;13.10;7.80;;;14.90;99.90;;;;;;5094653;28;20383;-72
2023/05/07 01:06:04;;;;;;;10.27;7.10;;;14.90;99.90;;;;;;5094490;28;20370;-71
2023/05/07 01:08:31;;;;;;;9.45;6.53;;;14.80;99.90;;;;;;5094288;28;20382;-72
2023/05/07 01:10:57;;;;;;;10.77;7.10;;;14.80;99.90;;;;;;5093264;28;20564;-72
2023/05/07 01:13:24;;;;;;;10.50;7.10;;;14.80;99.90;;;;;;5093975;28;20381;-72
2023/05/07 01:15:50;;;;;;;9.67;7.27;;;14.80;99.90;;;;;;5094262;28;20941;-72
2023/05/07 01:18:16;;;;;;;9.33;7.23;;;14.70;99.90;;;;;;5093827;28;20485;-72
2023/05/07 01:20:42;;;;;;;10.40;7.17;;;14.70;99.90;;;;;;5093494;28;20378;-72
2023/05/07 01:23:08;;;;;;;7.55;6.63;;;14.70;99.90;;;;;;5091986;28;20386;-71
2023/05/07 01:25:34;;;;;;;7.90;5.63;;;14.70;99.90;;;;;;5093861;28;20461;-71
2023/05/07 01:28:01;;;;;;;10.35;6.22;;;14.70;99.90;;;;;;5093809;28;20451;-71
2023/05/07 01:30:27;;;;;;;11.20;6.85;;;14.60;99.90;;;;;;5093542;28;20408;-71
2023/05/07 01:33:00;;;;;;;7.05;6.03;;;14.60;99.90;;;;;;5092731;28;20378;-72
2023/05/07 01:35:32;;;;;;;9.90;6.30;;;14.50;99.90;;;;;;5093662;28;20378;-70
2023/05/07 01:37:58;;;;;;;6.43;5.60;;;14.40;99.90;;;;;;5093351;28;20433;-71
2023/05/07 01:40:24;;;;;;;10.50;6.10;;;14.40;99.90;;;;;;5093214;28;20454;-71
2023/05/07 01:42:50;;;;;;;11.35;6.90;;;14.40;99.90;;;;;;5092848;28;20378;-72
2023/05/07 01:45:16;;;;;;;9.18;6.32;;;14.40;99.90;;;;;;5093176;28;20444;-71
2023/05/07 01:47:42;;;;;;;12.73;6.15;;;14.40;99.90;;;;;;5093219;28;20870;-72
2023/05/07 01:50:09;;;;;;;10.10;6.53;;;14.40;99.90;;;;;;5093090;28;20410;-72
2023/05/07 01:52:37;;;;;;;8.88;6.03;;;14.40;99.90;;;;;;5092524;28;20374;-73
2023/05/07 01:55:03;;;;;;;8.38;5.47;;;14.30;99.90;;;;;;5093466;28;20390;-72
2023/05/07 01:57:29;;;;;;;9.25;5.88;;;14.60;99.90;;;;;;5092262;28;20382;-71
2023/05/07 01:59:54;;;;;;;8.50;6.40;;;14.50;99.90;;;;;;5092825;28;20377;-70
2023/05/07 02:02:20;;;;;;;6.77;5.70;;;14.40;99.90;;;;;;5092413;28;20417;-70
2023/05/07 02:04:45;;;;;;;6.13;5.07;;;14.30;99.90;;;;;;5092529;28;20370;-72
2023/05/07 02:07:11;;;;;;;7.07;4.80;;;14.20;99.90;;;;;;5092860;28;20393;-71
2023/05/07 02:09:38;;;;;;;12.17;6.70;;;14.10;99.90;;;;;;5092504;28;20795;-71
2023/05/07 02:12:03;;;;;;;7.13;5.20;;;14.10;99.90;;;;;;5091952;28;20817;-71
2023/05/07 02:14:29;;;;;;;5.90;4.63;;;14.00;99.90;;;;;;5092876;28;20378;-71
2023/05/07 02:16:54;;;;;;;5.40;4.90;;;13.90;99.90;;;;;;5093188;28;20386;-71
2023/05/07 02:19:21;;;;;;;10.20;5.20;;;13.80;99.90;;;;;;5096607;28;20427;-74
2023/05/07 02:21:47;;;;;;;5.93;4.75;;;13.90;99.90;;;;;;5105657;28;20417;-71
2023/05/07 02:24:13;;;;;;;5.90;4.20;;;14.00;99.90;;;;;;5109030;28;20385;-71
2023/05/07 02:26:40;;;;;;;7.50;4.00;;;14.10;99.90;;;;;;5098870;28;20390;-70
2023/05/07 02:29:05;;;;;;;6.00;4.25;;;14.00;99.90;;;;;;5092533;28;20397;-72
2023/05/07 02:31:31;;;;;;;6.10;4.90;;;14.20;99.90;;;;;;5091544;28;20762;-72
2023/05/07 02:33:56;;;;;;;9.70;5.00;;;14.30;99.90;;;;;;5092686;28;20874;-71
2023/05/07 02:36:22;;;;;;;5.57;4.60;;;14.20;99.90;;;;;;5092392;28;20378;-70
2023/05/07 02:38:47;;;;;;;5.80;4.90;;;14.30;99.90;;;;;;5092077;28;20835;-71
2023/05/07 02:41:13;;;;;;;8.18;4.43;;;14.20;99.90;;;;;;5091600;28;20862;-72
2023/05/07 02:43:38;;;;;;;6.77;5.37;;;14.00;99.90;;;;;;5092209;28;20887;-72
2023/05/07 02:46:06;;;;;;;12.20;5.07;;;13.90;99.90;;;;;;5091463;28;20405;-71
2023/05/07 02:48:32;;;;;;;7.85;5.88;;;13.80;99.90;;;;;;5091537;28;20389;-71
2023/05/07 02:50:58;;;;;;;9.45;6.10;;;13.70;99.90;;;;;;5090902;28;20398;-71
2023/05/07 02:53:27;;;;;;;8.93;5.07;;;13.80;99.90;;;;;;5091360;28;20370;-71
2023/05/07 02:55:56;;;;;;;8.05;4.93;;;13.80;99.90;;;;;;5091475;28;20386;-72
2023/05/07 02:58:22;;;;;;;5.70;4.70;;;13.90;99.90;;;;;;5080852;28;20970;-70
2023/05/07 03:00:48;;;;;;;6.03;4.37;;;13.70;99.90;;;;;;5071203;28;20422;-71
2023/05/07 03:03:14;;;;;;;6.17;4.47;;;13.70;99.90;;;;;;5071620;28;20386;-71
2023/05/07 03:05:40;;;;;;;5.82;5.00;;;13.60;99.90;;;;;;5075348;28;20427;-70
2023/05/07 03:08:06;;;;;;;5.97;5.05;;;13.60;99.90;;;;;;5106990;28;20378;-72
2023/05/07 03:10:32;;;;;;;7.57;5.00;;;13.60;99.90;;;;;;5107283;28;20432;-71
2023/05/07 03:12:57;;;;;;;7.05;4.85;;;13.50;99.90;;;;;;5104787;28;20394;-71
2023/05/07 03:15:23;;;;;;;5.80;4.70;;;13.50;99.90;;;;;;5101059;28;20472;-71
2023/05/07 03:17:48;;;;;;;6.33;4.87;;;13.50;99.90;;;;;;5092128;28;20451;-71
2023/05/07 03:20:14;;;;;;;5.63;5.07;;;13.50;99.90;;;;;;5096095;28;20441;-73
2023/05/07 03:22:40;;;;;;;9.17;5.20;;;13.60;99.90;;;;;;5089074;28;20418;-76
2023/05/07 03:25:07;;;;;;;9.77;5.20;;;13.60;99.90;;;;;;5094285;28;20411;-72
2023/05/07 03:27:32;;;;;;;8.73;6.00;;;13.60;99.90;;;;;;5070801;28;20388;-72
2023/05/07 03:29:58;;;;;;;7.70;5.10;;;13.60;99.90;;;;;;5070844;28;20540;-71
2023/05/07 03:32:23;;;;;;;8.30;5.00;;;13.60;99.90;;;;;;5070095;28;20490;-72
2023/05/07 03:34:49;;;;;;;8.10;4.90;;;13.60;99.90;;;;;;5070819;28;20380;-73
2023/05/07 03:37:15;;;;;;;9.70;4.60;;;13.60;99.90;;;;;;5070823;28;20384;-71
2023/05/07 03:39:40;;;;;;;7.70;4.90;;;13.60;99.90;;;;;;5052880;28;20379;-72
2023/05/07 03:42:06;;;;;;;5.80;5.07;;;13.60;99.90;;;;;;5070320;28;20469;-71
2023/05/07 03:44:31;;;;;;;6.82;5.20;;;13.60;99.90;;;;;;5070939;28;20864;-72
2023/05/07 03:46:57;;;;;;;6.47;4.40;;;13.60;99.90;;;;;;5071051;28;20375;-71
2023/05/07 03:49:22;;;;;;;5.90;4.93;;;13.80;99.90;;;;;;5071050;28;20816;-71
2023/05/07 03:51:48;;;;;;;5.07;4.10;;;13.90;99.90;;;;;;5070527;28;20893;-72
2023/05/07 03:54:13;;;;;;;6.10;4.57;;;14.00;99.90;;;;;;5071052;28;20858;-73
2023/05/07 03:56:39;;;;;;;6.57;4.40;;;14.20;99.90;;;;;;5070892;28;20872;-72
2023/05/07 03:59:04;;;;;;;5.10;4.00;;;14.20;99.90;;;;;;5070850;28;20891;-72
2023/05/07 04:01:30;;;;;;;4.73;4.23;;;14.00;99.90;;;;;;5070446;28;20379;-74
2023/05/07 04:03:55;;;;;;;9.40;5.30;;;13.90;99.90;;;;;;5052940;28;20419;-73
2023/05/07 04:06:21;;;;;;;6.55;4.90;;;13.90;99.90;;;;;;5052820;28;20493;-72
2023/05/07 04:08:46;;;;;;;5.83;4.50;;;13.90;99.90;;;;;;5052639;28;20392;-72
2023/05/07 04:11:12;;;;;;;6.00;3.83;;;13.90;99.90;;;;;;5070032;28;20491;-73
2023/05/07 04:13:37;;;;;;;4.20;3.80;;;13.90;99.90;;;;;;5070485;28;20448;-74
2023/05/07 04:16:04;;;;;;;6.00;4.72;;;14.00;99.90;;;;;;5070669;28;20383;-71
2023/05/07 04:18:30;;;;;;;6.57;4.80;;;14.10;99.90;;;;;;5070769;28;20478;-72
2023/05/07 04:20:56;;;;;;;5.55;4.22;;;14.10;99.90;;;;;;5072556;28;20415;-73
2023/05/07 04:23:21;;;;;;;5.93;4.10;;;14.20;99.90;;;;;;5056574;28;20380;-71
2023/05/07 04:25:47;;;;;;;6.20;4.53;;;14.20;99.90;;;;;;5074856;28;20382;-71
2023/05/07 04:28:13;;;;;;;6.60;4.90;;;14.20;99.90;;;;;;5074449;28;20872;-73
2023/05/07 04:30:39;;;;;;;6.15;4.78;;;14.20;99.90;;;;;;5074205;28;20478;-71
2023/05/07 04:33:06;;;;;;;5.22;4.10;;;14.30;99.90;;;;;;5073915;28;20375;-71
2023/05/07 04:35:32;;;;;;;5.72;4.00;;;14.40;99.90;;;;;;5074248;28;20456;-73
2023/05/07 04:37:57;;;;;;;5.30;4.00;;;14.50;99.90;;;;;;5073990;28;20832;-72
2023/05/07 04:40:23;;;;;;;3.93;3.30;;;14.70;99.90;;;;;;5073960;28;20376;-72
2023/05/07 04:42:49;;;;;;;6.10;3.50;;;14.90;94.50;;;;;;5073424;28;20422;-72
2023/05/07 04:45:15;;;;;;;6.28;3.50;;;15.20;90.00;;;;;;5074201;28;20383;-72
2023/05/07 04:47:40;;;;;;;7.25;3.50;;;15.30;87.20;;;;;;5074077;28;20756;-73
2023/05/07 04:50:09;;;;;;;5.63;3.30;;;15.30;87.10;;;;;;5074085;28;20376;-71
2023/05/07 04:52:35;;;;;;;3.75;3.40;;;15.40;85.40;;;;;;5073331;28;20406;-74
2023/05/07 04:55:00;;;;;;;4.60;3.20;;;15.20;87.70;;;;;;5073927;28;20384;-73
2023/05/07 04:57:26;;;;;;;4.20;3.58;;;15.10;89.90;;;;;;5055828;28;20380;-72
2023/05/07 04:59:53;;;;;;;5.53;4.10;;;15.10;91.40;;;;;;5073830;28;20437;-71
2023/05/07 05:02:18;;;;;;;6.50;3.87;;;15.00;92.70;;;;;;5073403;28;20451;-72
2023/05/07 05:04:44;;;;;;;6.53;4.10;;;15.00;92.40;;;;;;5073739;28;20375;-72
2023/05/07 05:07:10;;;;;;;5.50;3.70;;;15.10;93.30;;;;;;5073860;28;20380;-73
2023/05/07 05:09:35;;;;;;;6.60;3.50;;;15.10;94.30;;;;;;5073692;28;20380;-72
2023/05/07 05:12:01;;;;;;;6.30;4.15;;;15.20;94.00;;;;;;5072966;28;20406;-71
2023/05/07 05:14:26;;;;;;;3.43;3.13;;;15.30;93.50;;;;;;5073860;28;20410;-71
2023/05/07 05:16:52;;;;;;;6.30;3.67;;;15.30;91.60;;;;;;5074369;28;20372;-72
2023/05/07 05:19:17;;;;;;;5.13;3.60;;;15.40;91.80;;;;;;5077221;28;20384;-72
2023/05/07 05:21:43;;;;;;;3.40;3.10;;;15.40;89.90;;;;;;5079959;28;20503;-73
2023/05/07 05:24:08;;;;;;;7.93;3.93;;;15.50;89.40;;;;;;5088486;28;20490;-73
2023/05/07 05:26:34;;;;;;;4.78;3.45;;;15.60;88.40;;;;;;5089405;28;20392;-74
2023/05/07 05:29:00;;;;;;;3.58;3.20;;;15.60;88.40;;;;;;5090524;28;20388;-74
2023/05/07 05:31:25;;;;;;;4.50;3.90;;;15.70;86.90;;;;;;5088701;28;20502;-73
2023/05/07 05:33:51;;;;;;;6.20;4.63;;;15.80;85.10;;;;;;5085311;28;20391;-71
2023/05/07 05:36:17;;;;;;;5.80;3.70;;;15.90;85.10;;;;;;5055516;28;20876;-71
2023/05/07 05:38:42;;;;;;;5.22;3.35;;;16.00;82.80;;;;;;5073148;28;20384;-72
2023/05/07 05:41:08;;;;;;;5.55;3.10;;;16.20;79.10;;;;;;5072438;28;20423;-72
2023/05/07 05:43:33;;;;;;;8.23;3.40;;;16.30;78.10;;;;;;5073125;28;20380;-71
2023/05/07 05:46:00;;;;;;;4.47;3.40;;;16.40;76.30;;;;;;5072888;28;20802;-72
2023/05/07 05:48:25;;;;;;;3.40;3.10;;;16.60;74.30;;;;;;5073108;28;20392;-74
2023/05/07 05:50:51;;;;;;;5.83;3.40;;;16.80;71.10;;;;;;5072351;28;20399;-74
2023/05/07 05:53:16;;;;;;;6.50;3.47;;;16.90;69.40;;;;;;5073007;28;20382;-71
2023/05/07 05:55:43;;;;;;;5.07;3.08;;;17.10;66.30;;;;;;5072895;28;20376;-72
2023/05/07 05:58:09;;;;;;;4.70;3.20;;;17.10;65.20;;;;;;5072722;28;20379;-71
2023/05/07 06:00:34;;;;;;;4.05;3.10;;;17.20;66.10;;;;;;5072842;28;20379;-73
2023/05/07 06:03:00;;;;;;;3.63;3.30;;;17.30;66.30;;;;;;5072181;28;20391;-72
2023/05/07 06:05:25;;;;;;;4.90;2.83;;;17.40;65.50;;;;;;5072694;28;20880;-72
2023/05/07 06:07:51;;;;;;;11.70;2.93;;;17.40;60.90;;;;;;5072356;28;20442;-72
2023/05/07 06:10:17;;;;;;;7.25;3.30;;;17.50;60.20;;;;;;5072622;28;20391;-73
2023/05/07 06:12:42;;;;;;;4.50;2.63;;;17.60;59.30;;;;;;5071822;28;20391;-72
2023/05/07 06:15:08;;;;;;;4.10;2.43;;;17.70;57.70;;;;;;5072794;28;20388;-72
2023/05/07 06:17:34;;;;;;;4.73;3.00;;;17.70;57.00;;;;;;5072850;28;20465;-72
2023/05/07 06:20:00;;;;;;;5.05;2.95;;;17.90;52.60;;;;;;5072922;28;20411;-71
2023/05/07 06:22:25;;;;;;;3.30;2.50;;;17.90;54.20;;;;;;5071694;28;20418;-72
2023/05/07 06:24:51;;;;;;;5.43;2.70;;;17.90;53.00;;;;;;5072302;28;20391;-71
2023/05/07 06:27:16;;;;;;;4.87;2.77;;;17.90;53.40;;;;;;5072812;28;20462;-72
2023/05/07 06:29:42;;;;;;;3.90;2.60;;;17.90;51.30;;;;;;5074586;28;20380;-73
2023/05/07 06:32:09;;;;;;;4.80;2.50;;;18.00;48.70;;;;;;5089377;28;20406;-72
2023/05/07 06:34:34;;;;;;;4.30;2.70;;;18.10;48.90;;;;;;5080263;28;20382;-74
2023/05/07 06:37:00;;;;;;;4.88;3.10;;;18.30;48.00;;;;;;5079836;28;20816;-71
2023/05/07 06:39:25;;;;;;;4.57;2.70;;;18.50;44.10;;;;;;5072309;28;20380;-73
2023/05/07 06:41:51;;;;;;;4.70;2.60;;;18.40;44.00;;;;;;5071294;28;20729;-73
2023/05/07 06:44:16;;;;;;;3.55;2.83;;;18.50;44.10;;;;;;5053626;28;20379;-72
2023/05/07 06:46:42;;;;;;;3.03;2.60;;;18.70;42.40;;;;;;5071729;28;20384;-70
2023/05/07 06:49:07;;;;;;;3.13;2.50;;;18.80;42.10;;;;;;5071870;28;20481;-72
2023/05/07 06:51:33;;;;;;;3.70;2.50;;;18.80;41.20;;;;;;5070981;28;20404;-73
2023/05/07 06:53:59;;;;;;;3.10;2.60;;;19.00;39.30;;;;;;5071748;28;20383;-73
2023/05/07 06:56:25;;;;;;;4.25;2.78;;;19.20;38.20;;;;;;5071704;28;20383;-72
2023/05/07 06:58:50;;;;;;;4.03;2.63;;;19.30;36.20;;;;;;5071967;28;20380;-72
2023/05/07 07:01:16;;;;;;;2.97;2.30;;;19.40;35.60;;;;;;5053002;28;20418;-72
2023/05/07 07:03:41;;;;;;;6.80;2.30;;;19.40;35.40;;;;;;5071987;28;20802;-72
2023/05/07 07:06:07;;;;;;;4.88;2.30;;;19.50;33.90;;;;;;5072504;28;20550;-72
2023/05/07 07:08:33;;;;;;;3.60;2.30;;;19.50;35.20;;;;;;5072867;28;20486;-72
2023/05/07 07:10:58;;;;;;;4.28;2.50;;;19.60;35.40;;;;;;5086891;28;20427;-72
2023/05/07 07:13:24;;;;;;;4.03;3.20;;;19.80;34.70;;;;;;5090712;28;20383;-72
2023/05/07 07:15:49;;;;;;;4.47;2.27;;;19.90;34.00;;;;;;5087726;28;20426;-73
2023/05/07 07:18:15;;;;;;;3.40;2.42;;;20.00;33.70;;;;;;5074008;28;20736;-71
2023/05/07 07:20:41;;;;;;;5.40;2.37;;;20.10;31.30;;;;;;5071247;28;20391;-72
2023/05/07 07:23:06;;;;;;;4.70;2.50;;;20.10;31.70;;;;;;5052663;28;20411;-71
2023/05/07 07:25:32;;;;;;;7.43;2.47;;;20.20;31.40;;;;;;5071129;28;20380;-71
2023/05/07 07:27:57;;;;;;;3.53;2.10;;;20.00;30.00;;;;;;5071132;28;20387;-71
2023/05/07 07:30:23;;;;;;;2.40;2.20;;;19.90;30.70;;;;;;5070950;28;20387;-73
2023/05/07 07:32:49;;;;;;;3.50;2.60;;;19.90;30.50;;;;;;5070720;28;20781;-73
2023/05/07 07:35:14;;;;;;;6.60;2.83;;;20.00;31.50;;;;;;5071022;28;20368;-74
2023/05/07 07:37:40;;;;;;;3.17;2.33;;;20.00;31.50;;;;;;5071292;28;20785;-73
2023/05/07 07:40:06;;;;;;;5.47;2.73;;;20.10;31.10;;;;;;5071327;28;20877;-72
2023/05/07 07:42:31;;;;;;;3.45;2.65;;;20.20;30.80;;;;;;5052443;28;20396;-73
2023/05/07 07:44:57;;;;;;;3.50;2.40;;;20.10;31.50;;;;;;5071351;28;20456;-73
2023/05/07 07:47:23;;;;;;;5.00;3.20;;;20.20;32.10;;;;;;5071129;28;20473;-73
2023/05/07 07:49:48;;;;;;;5.70;3.00;;;20.30;31.80;;;;;;5071463;28;20402;-73
2023/05/07 07:52:14;;;;;;;3.47;2.80;;;20.30;31.10;;;;;;5070248;28;20396;-72
2023/05/07 07:54:39;;;;;;;6.63;3.63;;;20.20;31.60;;;;;;5071081;28;20465;-72
2023/05/07 07:57:05;;;;;;;5.50;3.70;;;20.30;31.10;;;;;;5075271;28;20375;-72
2023/05/07 07:59:30;;;;;;;4.65;2.60;;;20.40;31.40;;;;;;5057115;28;20386;-71
2023/05/07 08:01:56;;;;;;;5.97;2.43;;;20.60;30.40;;;;;;5056452;28;20378;-71
2023/05/07 08:04:22;;;;;;;3.33;2.88;;;20.70;30.30;;;;;;5056984;28;20394;-72
2023/05/07 08:06:48;;;;;;;2.80;2.10;;;20.90;28.70;;;;;;5056891;28;20920;-72
2023/05/07 08:09:14;;;;;;;3.60;2.90;;;20.90;28.80;;;;;;5074994;28;20380;-72
2023/05/07 08:11:40;;;;;;;6.55;2.60;;;21.20;28.10;;;;;;5073814;28;20971;-74
2023/05/07 08:14:05;;;;;;;4.77;2.80;;;21.20;28.80;;;;;;5074836;28;20399;-73
2023/05/07 08:16:31;;;;;;;7.40;2.47;;;21.20;29.40;;;;;;5074755;28;20745;-73
2023/05/07 08:18:56;;;;;;;4.75;2.70;;;21.30;29.00;;;;;;5057172;28;20895;-73
2023/05/07 08:21:23;;;;;;;3.17;2.83;;;21.70;28.50;;;;;;5075630;28;20438;-71
2023/05/07 08:23:48;;;;;;;3.40;2.23;;;21.80;25.70;;;;;;5076105;28;20375;-73
2023/05/07 08:26:14;;;;;;;7.40;2.87;;;22.00;25.00;;;;;;5092321;28;20400;-74
2023/05/07 08:28:39;;;;;;;3.90;2.30;;;22.10;24.40;;;;;;5078635;28;20387;-72
2023/05/07 08:31:05;;;;;;;7.20;2.30;;;22.10;23.70;;;;;;5073898;28;20395;-73
2023/05/07 08:33:31;;;;;;;3.30;2.10;;;22.20;23.30;;;;;;5074584;28;20380;-73
2023/05/07 08:35:57;;;;;;;4.00;2.20;;;22.30;22.30;;;;;;5075306;28;20855;-73
2023/05/07 08:38:22;;;;;;;6.57;2.97;;;22.20;22.60;;;;;;5074497;28;20379;-74
2023/05/07 08:40:48;;;;;;;4.10;2.20;;;22.40;22.90;;;;;;5074509;28;20437;-73
2023/05/07 08:43:14;;;;;;;3.58;2.40;;;22.50;22.20;;;;;;5073763;28;20384;-73
2023/05/07 08:45:40;;;;;;;5.20;1.90;;;22.80;21.00;;;;;;5074177;28;20440;-74
2023/05/07 08:48:14;;;;;;;4.63;2.30;;;23.00;20.50;;;;;;5074080;28;20412;-74
2023/05/07 08:50:39;;;;;;;4.30;2.75;;;23.10;19.80;;;;;;5074223;28;20415;-72
2023/05/07 08:53:05;;;;;;;2.85;2.47;;;23.50;19.30;;;;;;5055893;28;20387;-72
2023/05/07 08:55:31;;;;;;;3.88;2.55;;;23.50;18.90;;;;;;5056504;28;20918;-72
2023/05/07 08:57:56;;;;;;;3.70;2.10;;;23.60;18.70;;;;;;5074082;28;20376;-73
2023/05/07 09:00:22;;;;;;;6.13;2.13;;;23.40;18.40;;;;;;5074324;28;20477;-74
2023/05/07 09:02:48;;;;;;;2.10;1.90;;;23.40;18.80;;;;;;5073233;28;20740;-72
2023/05/07 09:05:13;;;;;;;5.63;2.20;;;23.30;19.00;;;;;;5074670;28;20459;-72
2023/05/07 09:07:39;;;;;;;6.90;2.90;;;23.30;19.00;;;;;;5074972;28;20811;-74
2023/05/07 09:10:06;;;;;;;2.97;2.07;;;23.90;19.40;;;;;;5076422;28;20445;-74
2023/05/07 09:12:31;;;;;;;2.67;1.90;;;23.70;18.90;;;;;;5075376;28;20491;-73
2023/05/07 09:14:58;;;;;;;6.60;2.20;;;23.70;18.60;;;;;;5076346;28;20427;-73
2023/05/07 09:17:24;;;;;;;2.28;1.70;;;23.50;18.20;;;;;;5075487;28;20441;-73
2023/05/07 09:19:50;;;;;;;3.90;2.10;;;23.60;18.10;;;;;;5074992;28;20895;-72
2023/05/07 09:22:16;;;;;;;2.80;2.35;;;23.60;18.70;;;;;;5077956;28;20474;-72
2023/05/07 09:24:50;;;;;;;5.07;2.63;;;23.60;19.30;;;;;;5079289;28;20892;-73
2023/05/07 09:27:17;;;;;;;3.78;2.10;;;23.60;19.80;;;;;;5077433;28;20391;-73
2023/05/07 09:29:43;;;;;;;3.80;2.55;;;23.70;19.00;;;;;;5074217;28;20412;-72
2023/05/07 09:32:10;;;;;;;4.95;3.30;;;23.80;18.10;;;;;;5072817;28;20422;-72
2023/05/07 09:34:36;;;;;;;4.40;3.28;;;23.90;17.50;;;;;;5073176;28;20394;-71
2023/05/07 09:37:03;;;;;;;5.13;2.97;;;24.20;17.60;;;;;;5073203;28;20873;-72
2023/05/07 09:39:46;;;;;;;4.43;2.40;;;24.30;17.80;;;;;;5055337;28;20387;-72
2023/05/07 09:42:12;;;;;;;2.65;2.10;;;24.60;16.20;;;;;;5072525;28;20475;-72
2023/05/07 09:44:39;;;;;;;5.30;2.40;;;24.60;15.20;;;;;;5072947;28;20391;-74
2023/05/07 09:47:05;;;;;;;3.33;2.00;;;24.80;15.30;;;;;;5073511;28;20437;-72
2023/05/07 09:49:34;;;;;;;3.03;2.70;;;25.00;15.00;;;;;;5073130;28;20435;-74
2023/05/07 09:52:01;;;;;;;4.95;2.55;;;25.00;15.20;;;;;;5072374;28;20415;-74
2023/05/07 09:54:30;;;;;;;8.40;2.30;;;24.80;15.40;;;;;;5072921;28;20745;-73
2023/05/07 09:56:57;;;;;;;3.03;2.20;;;25.20;15.10;;;;;;5072798;28;20399;-73
2023/05/07 09:59:23;;;;;;;2.63;2.08;;;25.20;15.00;;;;;;5072379;28;20384;-73
2023/05/07 10:01:50;;;;;;;3.38;1.85;;;25.30;15.10;;;;;;5071851;28;20386;-73
2023/05/07 10:04:16;;;;;;;2.72;1.90;;;25.40;15.00;;;;;;5072471;28;20383;-74
2023/05/07 10:06:43;;;;;;;4.15;2.05;;;26.10;13.80;;;;;;5072308;28;20388;-74
2023/05/07 10:09:10;;;;;;;5.55;2.20;;;26.10;14.20;;;;;;5072564;28;20384;-73
2023/05/07 10:11:36;;;;;;;3.60;2.13;;;25.60;14.50;;;;;;5053494;28;20513;-73
2023/05/07 10:14:05;;;;;;;3.10;2.53;;;25.50;14.10;;;;;;5072510;28;20392;-72
2023/05/07 10:16:36;;;;;;;2.78;2.10;;;25.20;15.30;;;;;;5072565;28;20376;-72
2023/05/07 10:19:05;;;;;;;2.72;1.80;;;25.20;15.70;;;;;;5053625;28;20391;-73
2023/05/07 10:21:36;;;;;;;3.00;2.30;;;25.40;14.20;;;;;;5071880;28;20749;-72
2023/05/07 10:24:13;;;;;;;3.03;2.10;;;25.80;13.80;;;;;;5072217;28;20415;-73
2023/05/07 10:26:43;;;;;;;4.20;2.50;;;25.40;14.00;;;;;;5071429;28;20412;-73
2023/05/07 10:29:35;;;;;;;3.22;2.40;;;25.60;14.20;;;;;;5072160;28;20505;-75
2023/05/07 10:32:18;;;;;;;6.60;2.90;;;25.30;15.00;;;;;;5062399;28;20423;-73
2023/05/07 10:34:47;;;;;;;3.53;1.80;;;25.90;13.80;;;;;;5072172;28;20368;-73
2023/05/07 10:37:13;;;;;;;4.97;2.63;;;26.10;13.90;;;;;;5072298;28;20391;-73
2023/05/07 10:39:39;;;;;;;2.70;1.70;;;26.30;13.70;;;;;;5055480;28;20475;-73
2023/05/07 10:42:12;;;;;;;3.15;1.90;;;26.10;12.90;;;;;;5077341;28;20810;-73
2023/05/07 10:44:37;;;;;;;3.90;2.33;;;25.60;14.40;;;;;;5066560;28;20459;-71
2023/05/07 10:47:05;;;;;;;2.30;2.00;;;25.90;14.00;;;;;;5086901;28;20380;-73
2023/05/07 10:49:30;;;;;;;3.60;2.08;;;25.90;12.50;;;;;;5074163;28;20736;-74
2023/05/07 10:52:20;;;;;;;4.63;1.73;;;26.20;12.40;;;;;;5058049;28;20407;-74
2023/05/07 10:54:46;;;;;;;5.30;2.30;;;26.50;12.50;;;;;;5076042;28;20372;-73
2023/05/07 10:57:35;;;;;;;4.22;1.80;;;26.90;11.40;;;;;;5056398;28;20745;-73
2023/05/07 11:00:01;;;;;;;3.95;1.90;;;27.10;11.10;;;;;;5074291;28;20872;-73
2023/05/07 11:03:05;;;;;;;3.88;2.10;;;26.90;10.90;;;;;;5071455;28;20392;-72
2023/05/07 11:05:32;;;;;;;2.50;2.00;;;27.30;11.00;;;;;;5072350;28;20375;-73
2023/05/07 11:08:00;;;;;;;3.38;1.60;;;27.40;11.50;;;;;;5071722;28;20383;-73
2023/05/07 11:10:48;;;;;;;3.42;1.60;;;27.90;9.00;;;;;;5072299;28;20399;-73
2023/05/07 11:13:14;;;;;;;2.60;1.70;;;27.30;9.90;;;;;;5073669;28;20376;-74
2023/05/07 11:15:43;;;;;;;3.95;1.73;;;27.30;9.90;;;;;;5074201;28;20860;-74
2023/05/07 11:18:09;;;;;;;2.85;1.42;;;27.30;9.60;;;;;;5074530;28;20468;-74
2023/05/07 11:21:02;;;;;;;4.97;1.70;;;26.90;10.40;;;;;;5074057;28;20926;-71
2023/05/07 11:23:33;;;;;;;2.53;1.80;;;27.20;11.10;;;;;;5070555;28;20388;-74
2023/05/07 11:26:07;;;;;;;2.73;1.70;;;27.30;10.70;;;;;;5074640;28;20785;-71
2023/05/07 11:28:38;;;;;;;1.95;1.50;;;27.20;9.90;;;;;;5071808;28;20384;-73
2023/05/07 11:31:04;;;;;;;2.40;1.50;;;27.30;10.10;;;;;;5071001;28;20456;-72
2023/05/07 11:33:30;;;;;;;2.17;1.60;;;27.10;10.30;;;;;;5071696;28;20375;-75
2023/05/07 11:35:57;;;;;;;2.97;1.40;;;27.00;10.30;;;;;;5072242;28;20409;-73
2023/05/07 11:38:23;;;;;;;2.80;1.60;;;26.70;10.60;;;;;;5071858;28;20401;-74
2023/05/07 11:41:03;;;;;;;3.90;2.10;;;26.70;10.70;;;;;;5071430;28;20482;-72
2023/05/07 11:43:29;;;;;;;2.58;1.95;;;26.10;11.40;;;;;;5073126;28;20379;-72
2023/05/07 11:46:04;;;;;;;4.28;1.45;;;25.30;12.70;;;;;;5056719;28;20383;-74
2023/05/07 11:48:30;;;;;;;3.05;2.00;;;24.90;13.90;;;;;;5073217;28;20407;-73
2023/05/07 11:50:58;;;;;;;2.00;1.80;;;25.00;14.50;;;;;;5070943;28;20404;-73
2023/05/07 11:53:28;;;;;;;3.03;2.00;;;24.90;14.90;;;;;;5073742;28;20376;-74
2023/05/07 11:55:57;;;;;;;2.83;1.55;;;25.40;13.80;;;;;;5075083;28;20412;-72
2023/05/07 11:58:24;;;;;;;3.10;1.90;;;25.70;13.00;;;;;;5072251;28;20380;-74
2023/05/07 12:00:53;;;;;;;2.92;1.70;;;26.10;12.80;;;;;;5071467;28;20379;-72
2023/05/07 12:03:22;;;;;;;2.10;1.73;;;25.90;12.30;;;;;;5071242;28;20774;-73
2023/05/07 12:05:48;;;;;;;3.45;2.05;;;25.90;12.20;;;;;;5071204;28;20384;-73
2023/05/07 12:08:15;;;;;;;3.20;1.70;;;26.00;12.40;;;;;;5071297;28;20394;-74
2023/05/07 12:10:42;;;;;;;2.38;1.70;;;25.70;12.30;;;;;;5071464;28;20428;-74
2023/05/07 12:13:18;;;;;;;3.92;1.73;;;25.20;13.00;;;;;;5071402;28;20395;-73
2023/05/07 12:15:44;;;;;;;2.50;1.80;;;24.90;14.50;;;;;;5071939;28;20371;-73
2023/05/07 12:18:11;;;;;;;1.90;1.52;;;25.00;13.70;;;;;;5071653;28;20879;-74
2023/05/07 12:20:37;;;;;;;3.90;1.80;;;25.10;13.40;;;;;;5071367;28;20375;-73
2023/05/07 12:23:03;;;;;;;3.95;2.15;;;24.90;14.00;;;;;;5073604;28;20899;-73
2023/05/07 12:25:36;;;;;;;4.25;1.80;;;24.50;14.70;;;;;;5071080;28;20437;-72
2023/05/07 12:28:05;;;;;;;3.97;1.85;;;23.90;15.60;;;;;;5053146;28;20488;-72
2023/05/07 12:30:36;;;;;;;2.83;2.20;;;23.70;16.20;;;;;;5053120;28;20482;-74
2023/05/07 12:33:02;;;;;;;2.90;1.80;;;23.60;16.20;;;;;;5070414;28;20368;-73
2023/05/07 12:35:28;;;;;;;2.47;1.90;;;23.50;16.50;;;;;;5071197;28;20768;-72
2023/05/07 12:37:59;;;;;;;3.83;2.00;;;23.40;16.90;;;;;;5071089;28;20388;-72
2023/05/07 12:40:40;;;;;;;4.40;2.00;;;23.60;16.40;;;;;;5071181;28;20403;-73
2023/05/07 12:43:06;;;;;;;2.30;1.75;;;23.50;16.40;;;;;;5074397;28;20399;-73